Data for 10/06/2018

Time Sea-Level Adjusted Pressure Absolute Pressure Temperature Relative Humidity Dew Point   
(mb) (inHg) (mb) (inHg) (C) (F) (%) (C) (F)
00:05 1017 30.03 847 25.01 3.2 37.8 69 -1.8 28.7
00:10 1017 30.03 847 25.01 3.1 37.6 69 -1.9 28.5
00:15 1017 30.03 846 24.98 3.1 37.5 71 -1.7 28.9
00:20 1017 30.03 846 24.98 3 37.4 71 -1.7 29
00:25 1017 30.03 846 24.98 3 37.4 70 -1.8 28.7
00:30 1017 30.03 846 24.98 3.1 37.6 70 -1.8 28.8
00:35 1017 30.03 846 24.98 3.2 37.7 70 -1.7 28.9
00:40 1017 30.03 846 24.98 3.2 37.8 69 -1.9 28.6
00:45 1017 30.03 846 24.98 3.4 38.1 68 -2 28.5
00:50 1017 30.03 846 24.98 3.5 38.3 68 -1.9 28.6
00:55 1017 30.03 846 24.98 3.5 38.4 68 -1.8 28.8
01:00 1017 30.03 846 24.98 3.5 38.2 70 -1.5 29.3
01:05 1017 30.03 846 24.98 3.3 37.9 71 -1.4 29.5
01:10 1017 30.03 846 24.98 3.1 37.7 72 -1.5 29.3
01:15 1017 30.03 846 24.98 3.2 37.8 71 -1.6 29.1
01:20 1017 30.03 846 24.98 3.4 38.1 69 -1.8 28.7
01:25 1017 30.03 846 24.98 3.6 38.4 69 -1.6 29.2
01:30 1017 30.03 846 24.98 3.5 38.3 68 -1.7 28.9
01:35 1017 30.03 846 24.98 3.7 38.6 68 -1.7 28.9
01:40 1017 30.03 846 24.98 3.6 38.6 68 -1.7 28.9
01:45 1017 30.03 846 24.98 3.7 38.6 68 -1.7 29
01:50 1017 30.03 846 24.98 3.7 38.6 68 -1.7 28.9
01:55 1017 30.03 846 24.98 3.7 38.6 69 -1.5 29.2
02:00 1017 30.03 846 24.98 3.6 38.5 69 -1.6 29.2
02:05 1017 30.03 846 24.98 3.6 38.4 70 -1.4 29.5
02:10 1017 30.03 846 24.98 3.5 38.4 70 -1.5 29.3
02:15 1017 30.03 846 24.98 3.6 38.5 69 -1.5 29.3
02:20 1017 30.03 846 24.98 3.7 38.6 69 -1.5 29.3
02:25 1017 30.03 846 24.98 3.7 38.6 70 -1.3 29.6
02:30 1017 30.03 846 24.98 3.7 38.6 69 -1.5 29.4
02:35 1017 30.03 846 24.98 3.7 38.6 71 -1.2 29.9
02:40 1017 30.03 846 24.98 3.6 38.4 71 -1.3 29.7
02:45 1017 30.03 846 24.98 3.6 38.4 71 -1.3 29.7
02:50 1017 30.03 846 24.98 3.6 38.4 71 -1.2 29.9
02:55 1017 30.03 846 24.98 3.5 38.4 71 -1.2 29.8
03:00 1017 30.03 846 24.98 3.6 38.5 71 -1.1 30.1
03:05 1017 30.03 846 24.98 3.5 38.4 71 -1.2 29.9
03:10 1017 30.03 846 24.98 3.6 38.4 72 -1 30.2
03:15 1016 30 846 24.98 3.5 38.2 72 -1.2 29.9
03:20 1016 30 846 24.98 3.6 38.5 72 -1 30.1
03:25 1016 30 846 24.98 3.6 38.5 71 -1.2 29.9
03:30 1016 30 846 24.98 3.7 38.6 71 -1 30.1
03:35 1016 30 846 24.98 3.7 38.7 71 -1.1 30.1
03:40 1016 30 845 24.95 3.9 39 67 -1.7 29
03:45 1016 30 845 24.95 4.2 39.5 68 -1.1 30
03:50 1016 30 845 24.95 4 39.2 70 -1 30.2
03:55 1016 30 845 24.95 3.9 39 70 -1.1 29.9
04:00 1016 30 845 24.95 3.8 38.9 71 -0.9 30.3
04:05 1016 30 845 24.95 3.7 38.7 70 -1.2 29.9
04:10 1016 30 845 24.95 3.7 38.7 71 -1.1 30
04:15 1016 30 845 24.95 3.7 38.7 71 -1.1 30.1
04:20 1016 30 845 24.95 3.7 38.7 70 -1.3 29.7
04:25 1016 30 845 24.95 3.7 38.6 71 -1.1 30.1
04:30 1016 30 845 24.95 3.6 38.4 72 -1.1 30.1
04:35 1016 30 845 24.95 3.4 38.1 72 -1.1 30.1
04:40 1016 30 845 24.95 3.3 38 73 -1.1 30
04:45 1016 30 845 24.95 3.3 37.9 72 -1.2 29.8
04:50 1016 30 845 24.95 3.4 38.1 72 -1.2 29.9
04:55 1016 30 845 24.95 3.4 38.2 71 -1.4 29.5
05:00 1016 30 845 24.95 3.4 38.2 71 -1.4 29.5
05:05 1016 30 845 24.95 3.5 38.3 70 -1.4 29.4
05:10 1016 30 845 24.95 3.6 38.4 70 -1.4 29.4
05:15 1016 30 845 24.95 3.6 38.5 70 -1.4 29.5
05:20 1016 30 845 24.95 3.7 38.6 69 -1.4 29.4
05:25 1016 30 845 24.95 3.6 38.6 69 -1.5 29.4
05:30 1016 30 845 24.95 3.7 38.6 69 -1.5 29.4
05:35 1016 30 845 24.95 3.6 38.6 69 -1.5 29.3
05:40 1016 30 845 24.95 3.6 38.5 69 -1.4 29.4
05:45 1016 30 845 24.95 3.6 38.5 69 -1.5 29.2
05:50 1016 30 845 24.95 3.6 38.5 69 -1.6 29.2
05:55 1016 30 845 24.95 3.6 38.5 70 -1.4 29.5
06:00 1016 30 845 24.95 3.5 38.2 71 -1.4 29.6
06:05 1016 30 845 24.95 3.5 38.2 71 -1.3 29.6
06:10 1016 30 845 24.95 3.4 38.2 71 -1.3 29.6
06:15 1016 30 845 24.95 3.4 38.1 71 -1.3 29.7
06:20 1016 30 845 24.95 3.3 38 72 -1.3 29.7
06:25 1016 30 845 24.95 3.4 38 70 -1.6 29.2
06:30 1016 30 845 24.95 3.6 38.5 69 -1.5 29.3
06:35 1016 30 845 24.95 3.6 38.5 70 -1.4 29.4
06:40 1016 30 845 24.95 3.4 38.2 72 -1.2 29.8
06:45 1016 30 845 24.95 3.3 37.9 72 -1.3 29.6
06:50 1016 30 845 24.95 3.2 37.8 73 -1.2 29.8
06:55 1016 30 845 24.95 3 37.4 74 -1.2 29.8
07:00 1015 29.97 845 24.95 2.9 37.2 74 -1.3 29.7
07:05 1015 29.97 845 24.95 2.8 37.1 75 -1.2 29.8
07:10 1015 29.97 845 24.95 2.6 36.7 76 -1.2 29.8
07:15 1015 29.97 845 24.95 2.5 36.4 76 -1.4 29.5
07:20 1015 29.97 845 24.95 2.5 36.6 75 -1.5 29.3
07:25 1015 29.97 845 24.95 2.5 36.5 75 -1.5 29.2
07:30 1015 29.97 845 24.95 2.6 36.7 74 -1.6 29.2
07:35 1015 29.97 845 24.95 2.7 36.9 72 -1.8 28.8
07:40 1015 29.97 845 24.95 2.9 37.2 72 -1.7 28.9
07:45 1015 29.97 845 24.95 2.9 37.3 72 -1.6 29.1
07:50 1015 29.97 845 24.95 2.8 37 74 -1.5 29.4
07:55 1015 29.97 845 24.95 2.5 36.4 76 -1.4 29.5
08:00 1016 30 845 24.95 2.2 36 77 -1.4 29.5
08:05 1016 30 845 24.95 2.3 36.1 77 -1.3 29.6
08:10 1016 30 845 24.95 2.3 36.1 77 -1.3 29.6
08:15 1016 30 845 24.95 2.5 36.4 77 -1.2 29.8
08:20 1016 30 845 24.95 2.5 36.4 77 -1.1 30.1
08:25 1016 30 845 24.95 2.5 36.4 78 -1 30.2
08:30 1016 30 845 24.95 2.5 36.5 77 -1.1 30
08:35 1016 30 845 24.95 2.7 36.9 75 -1.2 29.9
08:40 1016 30 845 24.95 2.8 37.1 74 -1.4 29.5
08:45 1016 30 845 24.95 3 37.4 73 -1.3 29.7
08:50 1016 30 845 24.95 3.2 37.7 73 -1.2 29.9
08:55 1016 30 845 24.95 3.2 37.7 74 -0.9 30.3
09:00 1016 30 845 24.95 3.1 37.7 75 -0.9 30.5
09:05 1016 30 845 24.95 3.3 37.9 72 -1.4 29.5
09:10 1016 30 845 24.95 3.4 38.2 69 -1.7 28.9
09:15 1016 30 845 24.95 3.5 38.4 69 -1.7 29
09:20 1016 30 845 24.95 3.7 38.6 69 -1.4 29.5
09:25 1016 30 845 24.95 3.9 38.9 69 -1.3 29.6
09:30 1016 30 845 24.95 4.1 39.3 67 -1.4 29.4
09:35 1016 30 845 24.95 4.2 39.6 67 -1.4 29.5
09:40 1016 30 845 24.95 4.3 39.7 68 -1 30.2
09:45 1016 30 845 24.95 4.2 39.6 67 -1.3 29.6
09:50 1016 30 845 24.95 4.1 39.3 68 -1.3 29.7
09:55 1016 30 845 24.95 4.1 39.4 68 -1.3 29.7
10:00 1016 30 845 24.95 4.3 39.8 67 -1.2 29.9
10:05 1016 30 845 24.95 4.5 40.1 66 -1.4 29.5
10:10 1016 30 845 24.95 4.9 40.9 64 -1.2 29.8
10:15 1016 30 846 24.98 5.2 41.3 62 -1.4 29.5
10:20 1016 30 846 24.98 5 41.1 64 -1.2 29.8
10:25 1016 30 846 24.98 5.3 41.6 62 -1.4 29.5
10:30 1016 30 846 24.98 5.3 41.6 63 -1.1 30
10:35 1016 30 846 24.98 5.1 41.2 63 -1.3 29.7
10:40 1016 30 846 24.98 5.5 41.9 63 -0.9 30.4
10:45 1016 30 846 24.98 5.5 41.9 62 -1.2 29.8
10:50 1016 30 845 24.95 5.8 42.5 60 -1.2 29.8
10:55 1016 30 845 24.95 6.7 44.1 57 -1.1 30.1
11:00 1016 30 845 24.95 6.8 44.3 59 -0.5 31.1
11:05 1016 30 845 24.95 6.8 44.2 57 -1.2 29.9
11:10 1016 30 845 24.95 7.6 45.7 55 -0.9 30.4
11:15 1016 30 845 24.95 7.2 45 57 -0.8 30.6
11:20 1016 30 845 24.95 7.1 44.8 56 -1 30.2
11:25 1016 30 845 24.95 7.5 45.4 55 -1.1 30.1
11:30 1016 30 845 24.95 7.8 46 53 -1 30.1
11:35 1016 30 845 24.95 8.3 46.9 53 -0.8 30.5
11:40 1016 30 845 24.95 8.5 47.3 52 -0.6 30.9
11:45 1016 30 845 24.95 8.7 47.6 53 -0.4 31.4
11:50 1016 30 845 24.95 8.8 47.9 53 -0.1 31.9
11:55 1016 30 845 24.95 9.2 48.6 52 -0.2 31.7
12:00 1016 30 845 24.95 9.7 49.5 50 -0.2 31.6
12:05 1016 30 845 24.95 10 49.9 50 0.2 32.3
12:10 1016 30 845 24.95 9.3 48.8 51 -0.2 31.7
12:15 1016 30 845 24.95 9.3 48.8 51 -0.4 31.3
12:20 1016 30 845 24.95 9.4 48.8 52 0 32
12:25 1016 30 845 24.95 9.1 48.3 52 -0.1 31.8
12:30 1016 30 845 24.95 8.9 48 53 -0.2 31.6
12:35 1016 30 845 24.95 8.4 47.1 53 -0.7 30.8
12:40 1016 30 845 24.95 8.6 47.6 52 -0.7 30.7
12:45 1016 30 845 24.95 8.8 47.9 52 -0.6 30.9
12:50 1016 30 845 24.95 9.2 48.6 50 -0.6 30.9
12:55 1016 30 845 24.95 8.9 48 52 -0.4 31.3
13:00 1016 30 845 24.95 8.5 47.3 54 -0.4 31.3
13:05 1016 30 845 24.95 8.3 46.9 54 -0.5 31.1
13:10 1016 30 845 24.95 8.8 47.9 53 -0.3 31.5
13:15 1016 30 845 24.95 8.7 47.6 52 -0.5 31.1
13:20 1016 30 845 24.95 8 46.4 55 -0.4 31.3
13:25 1016 30 845 24.95 8.3 47 53 -0.7 30.8
13:30 1016 30 845 24.95 8.5 47.2 52 -0.8 30.6
13:35 1016 30 845 24.95 8.5 47.4 54 -0.3 31.5
13:40 1016 30 845 24.95 8.1 46.6 55 -0.3 31.4
13:45 1016 30 845 24.95 8 46.4 53 -1.1 30
13:50 1016 30 845 24.95 8.5 47.4 53 -0.5 31.2
13:55 1016 30 845 24.95 8.6 47.4 53 -0.5 31.2
14:00 1016 30 845 24.95 8.8 47.9 53 -0.2 31.6
14:05 1016 30 845 24.95 8.9 47.9 54 -0 32
14:10 1016 30 845 24.95 8.1 46.6 55 -0.2 31.6
14:15 1016 30 845 24.95 7.9 46.3 57 0.1 32.1
14:20 1016 30 845 24.95 8.3 46.9 56 0 32.1
14:25 1016 30 845 24.95 8.5 47.3 55 -0 31.9
14:30 1016 30 845 24.95 8.6 47.5 56 0.3 32.5
14:35 1016 30 845 24.95 8.2 46.7 57 0.2 32.4
14:40 1016 30 845 24.95 8.4 47.2 57 0.5 33
14:45 1016 30 845 24.95 8.2 46.7 60 0.9 33.6
14:50 1016 30 845 24.95 8.1 46.6 60 0.9 33.6
14:55 1016 30 845 24.95 7.9 46.2 66 1.9 35.4
15:00 1016 30 845 24.95 7.6 45.8 61 0.7 33.2
15:05 1016 30 845 24.95 8.3 46.9 59 0.8 33.4
15:10 1016 30 845 24.95 8.8 47.8 56 0.7 33.2
15:15 1016 30 845 24.95 8.7 47.7 57 0.8 33.5
15:20 1016 30 845 24.95 8.7 47.6 56 0.4 32.8
15:25 1016 30 845 24.95 8.4 47.1 58 0.7 33.3
15:30 1016 30 845 24.95 7.9 46.3 59 0.5 32.9
15:35 1016 30 845 24.95 7.9 46.3 59 0.4 32.7
15:40 1016 30 845 24.95 8 46.4 58 0.4 32.7
15:45 1016 30 845 24.95 8.3 46.9 58 0.6 33.1
15:50 1016 30 845 24.95 8.4 47 58 0.6 33
15:55 1016 30 845 24.95 8.4 47.1 58 0.7 33.2
16:00 1016 30 845 24.95 8.5 47.3 57 0.5 33
16:05 1016 30 845 24.95 8.8 47.8 56 0.6 33
16:10 1016 30 845 24.95 8.1 46.6 59 0.6 33.2
16:15 1016 30 845 24.95 7.8 46 60 0.4 32.8
16:20 1016 30 845 24.95 7.4 45.4 61 0.5 32.9
16:25 1016 30 845 24.95 7.3 45.2 61 0.3 32.6
16:30 1016 30 845 24.95 7.6 45.7 60 0.4 32.8
16:35 1016 30 845 24.95 7.7 45.9 60 0.5 32.9
16:40 1016 30 845 24.95 7.9 46.1 59 0.4 32.8
16:45 1016 30 845 24.95 7.9 46.2 60 0.6 33
16:50 1016 30 845 24.95 7.8 46.1 60 0.6 33
16:55 1016 30 845 24.95 7.9 46.2 60 0.7 33.3
17:00 1016 30 845 24.95 8 46.4 60 0.7 33.3
17:05 1016 30 845 24.95 8 46.5 60 0.8 33.4
17:10 1016 30 845 24.95 8 46.5 60 0.8 33.5
17:15 1016 30 845 24.95 7.9 46.3 61 0.9 33.7
17:20 1016 30 845 24.95 7.9 46.2 61 0.9 33.7
17:25 1016 30 845 24.95 7.9 46.2 62 1.1 33.9
17:30 1016 30 846 24.98 7.8 46 62 1.1 34
17:35 1016 30 846 24.98 7.8 46 64 1.4 34.5
17:40 1016 30 846 24.98 7.5 45.5 66 1.6 35
17:45 1016 30 846 24.98 7.5 45.5 64 1.1 33.9
17:50 1017 30.03 846 24.98 7.3 45.1 67 1.6 34.9
17:55 1017 30.03 846 24.98 7.3 45.1 68 1.8 35.2
18:00 1017 30.03 846 24.98 7.2 45 67 1.5 34.7
18:05 1017 30.03 846 24.98 7.1 44.9 68 1.6 34.8
18:10 1017 30.03 846 24.98 7.1 44.8 67 1.5 34.7
18:15 1017 30.03 846 24.98 7.1 44.7 68 1.6 34.8
18:20 1017 30.03 846 24.98 7 44.7 67 1.3 34.3
18:25 1017 30.03 846 24.98 7 44.6 69 1.7 35.1
18:30 1017 30.03 846 24.98 7.1 44.7 69 1.8 35.3
18:35 1017 30.03 846 24.98 7.1 44.7 70 2 35.6
18:40 1017 30.03 846 24.98 7.1 44.8 69 1.8 35.3
18:45 1017 30.03 846 24.98 7.1 44.7 69 1.8 35.3
18:50 1017 30.03 846 24.98 7 44.6 68 1.5 34.7
18:55 1017 30.03 846 24.98 6.9 44.4 70 1.8 35.2
19:00 1017 30.03 846 24.98 6.8 44.3 72 2.1 35.7
19:05 1017 30.03 846 24.98 6.7 44 72 2 35.7
19:10 1017 30.03 846 24.98 6.6 43.9 75 2.6 36.7
19:15 1017 30.03 846 24.98 6.3 43.3 79 2.9 37.2
19:20 1017 30.03 846 24.98 6 42.8 81 3.1 37.5
19:25 1017 30.03 846 24.98 5.9 42.7 82 3.1 37.5
19:30 1017 30.03 847 25.01 5.8 42.4 83 3.2 37.7
19:35 1017 30.03 847 25.01 5.7 42.3 85 3.4 38.2
19:40 1017 30.03 847 25.01 5.6 42.1 86 3.4 38.1
19:45 1017 30.03 847 25.01 5.5 41.9 86 3.3 38
19:50 1017 30.03 847 25.01 5.4 41.8 86 3.3 37.9
19:55 1018 30.06 847 25.01 5.4 41.8 85 3.2 37.7
20:00 1018 30.06 847 25.01 5.4 41.7 84 2.9 37.2
20:05 1018 30.06 847 25.01 5.4 41.8 85 3.1 37.5
20:10 1018 30.06 847 25.01 5.4 41.8 86 3.2 37.8
20:15 1018 30.06 847 25.01 5.4 41.7 86 3.2 37.7
20:20 1018 30.06 847 25.01 5.3 41.6 86 3.2 37.8
20:25 1018 30.06 847 25.01 5.3 41.6 85 3 37.4
20:30 1018 30.06 847 25.01 5.4 41.7 86 3.2 37.7
20:35 1018 30.06 847 25.01 5.4 41.8 86 3.2 37.8
20:40 1018 30.06 847 25.01 5.4 41.7 86 3.3 37.9
20:45 1018 30.06 847 25.01 5.4 41.7 87 3.4 38.1
20:50 1018 30.06 847 25.01 5.5 41.9 86 3.3 37.9
20:55 1018 30.06 847 25.01 5.4 41.8 86 3.3 38
21:00 1018 30.06 847 25.01 5.4 41.8 85 3.1 37.5
21:05 1018 30.06 847 25.01 5.4 41.7 83 2.7 36.9
21:10 1018 30.06 847 25.01 5.3 41.6 82 2.5 36.5
21:15 1018 30.06 847 25.01 5.3 41.5 84 2.7 36.9
21:20 1018 30.06 847 25.01 5.2 41.4 84 2.8 37
21:25 1018 30.06 847 25.01 5.2 41.3 84 2.8 37
21:30 1018 30.06 847 25.01 5.1 41.3 82 2.2 36
21:35 1018 30.06 847 25.01 5.1 41.2 81 2.2 36
21:40 1018 30.06 847 25.01 5 41 79 1.7 35.1
21:45 1018 30.06 847 25.01 5 40.9 79 1.6 34.9
21:50 1018 30.06 847 25.01 4.9 40.9 79 1.6 34.9
21:55 1018 30.06 847 25.01 4.9 40.7 80 1.6 35
22:00 1018 30.06 847 25.01 4.8 40.7 79 1.5 34.7
22:05 1018 30.06 847 25.01 4.8 40.6 79 1.4 34.6
22:10 1018 30.06 847 25.01 4.8 40.6 79 1.5 34.7
22:15 1018 30.06 847 25.01 4.7 40.5 79 1.4 34.6
22:20 1018 30.06 847 25.01 4.7 40.5 79 1.4 34.5
22:25 1018 30.06 847 25.01 4.7 40.4 80 1.4 34.6
22:30 1018 30.06 847 25.01 4.7 40.5 79 1.4 34.6
22:35 1018 30.06 847 25.01 4.7 40.5 80 1.5 34.7
22:40 1018 30.06 847 25.01 4.7 40.5 80 1.6 34.8
22:45 1018 30.06 847 25.01 4.7 40.5 81 1.7 35
22:50 1018 30.06 847 25.01 4.7 40.5 80 1.6 34.8
22:55 1018 30.06 847 25.01 4.8 40.6 79 1.5 34.7
23:00 1018 30.06 848 25.04 4.8 40.7 78 1.3 34.4
23:05 1018 30.06 848 25.04 4.9 40.8 79 1.5 34.8
23:10 1018 30.06 848 25.04 4.9 40.8 79 1.6 34.9
23:15 1018 30.06 848 25.04 4.9 40.7 79 1.6 34.8
23:20 1018 30.06 848 25.04 4.9 40.7 79 1.6 34.8
23:25 1019 30.09 848 25.04 4.9 40.8 79 1.6 34.9
23:30 1019 30.09 848 25.04 4.9 40.8 80 1.7 35.1
23:35 1018 30.06 848 25.04 4.9 40.8 80 1.7 35
23:40 1018 30.06 848 25.04 4.9 40.7 80 1.7 35.1
23:45 1018 30.06 848 25.04 4.8 40.7 80 1.6 34.9
23:50 1018 30.06 848 25.04 4.8 40.7 80 1.7 35
23:55 1018 30.06 848 25.04 4.8 40.6 80 1.7 35.1
24:00 1018 30.06 848 25.04 4.8 40.7 80 1.7 35